sensor_id;sensor_type;location;lat;lon;timestamp;P1;durP1;ratioP1;P2;durP2;ratioP2
73919;SDS011;62266;53.348;-1.496;2023-01-28T00:00:08;19.23;;;11.27;;
73919;SDS011;62266;53.348;-1.496;2023-01-28T00:02:36;19.83;;;11.52;;
73919;SDS011;62266;53.348;-1.496;2023-01-28T00:05:02;17.80;;;11.30;;
73919;SDS011;62266;53.348;-1.496;2023-01-28T00:07:28;19.67;;;11.32;;
73919;SDS011;62266;53.348;-1.496;2023-01-28T00:09:54;17.80;;;11.77;;
73919;SDS011;62266;53.348;-1.496;2023-01-28T00:12:19;19.75;;;11.40;;
73919;SDS011;62266;53.348;-1.496;2023-01-28T00:14:46;19.60;;;12.38;;
73919;SDS011;62266;53.348;-1.496;2023-01-28T00:17:12;18.33;;;10.97;;
73919;SDS011;62266;53.348;-1.496;2023-01-28T00:19:38;19.88;;;12.15;;
73919;SDS011;62266;53.348;-1.496;2023-01-28T00:22:04;17.10;;;11.05;;
73919;SDS011;62266;53.348;-1.496;2023-01-28T00:24:30;19.07;;;11.27;;
73919;SDS011;62266;53.348;-1.496;2023-01-28T00:26:55;16.97;;;10.67;;
73919;SDS011;62266;53.348;-1.496;2023-01-28T00:29:21;18.10;;;10.73;;
73919;SDS011;62266;53.348;-1.496;2023-01-28T00:34:15;15.85;;;10.00;;
73919;SDS011;62266;53.348;-1.496;2023-01-28T00:36:41;16.48;;;10.95;;
73919;SDS011;62266;53.348;-1.496;2023-01-28T00:39:12;19.02;;;10.88;;
73919;SDS011;62266;53.348;-1.496;2023-01-28T00:41:39;16.05;;;10.25;;
73919;SDS011;62266;53.348;-1.496;2023-01-28T00:44:05;17.53;;;10.87;;
73919;SDS011;62266;53.348;-1.496;2023-01-28T00:46:32;17.52;;;10.90;;
73919;SDS011;62266;53.348;-1.496;2023-01-28T00:48:58;17.47;;;10.83;;
73919;SDS011;62266;53.348;-1.496;2023-01-28T00:51:24;17.75;;;11.68;;
73919;SDS011;62266;53.348;-1.496;2023-01-28T00:53:51;21.52;;;11.25;;
73919;SDS011;62266;53.348;-1.496;2023-01-28T00:56:18;19.23;;;10.80;;
73919;SDS011;62266;53.348;-1.496;2023-01-28T00:58:44;19.02;;;10.68;;
73919;SDS011;62266;53.348;-1.496;2023-01-28T01:01:10;16.52;;;10.88;;
73919;SDS011;62266;53.348;-1.496;2023-01-28T01:03:37;16.00;;;9.95;;
73919;SDS011;62266;53.348;-1.496;2023-01-28T01:06:03;15.87;;;10.17;;
73919;SDS011;62266;53.348;-1.496;2023-01-28T01:08:31;16.55;;;10.23;;
73919;SDS011;62266;53.348;-1.496;2023-01-28T01:11:01;15.30;;;9.90;;
73919;SDS011;62266;53.348;-1.496;2023-01-28T01:13:27;14.98;;;10.02;;
73919;SDS011;62266;53.348;-1.496;2023-01-28T01:16:00;15.57;;;10.00;;
73919;SDS011;62266;53.348;-1.496;2023-01-28T01:18:26;18.20;;;10.20;;
73919;SDS011;62266;53.348;-1.496;2023-01-28T01:20:59;16.50;;;10.27;;
73919;SDS011;62266;53.348;-1.496;2023-01-28T01:23:26;18.60;;;10.27;;
73919;SDS011;62266;53.348;-1.496;2023-01-28T01:25:52;20.83;;;11.50;;
73919;SDS011;62266;53.348;-1.496;2023-01-28T01:28:18;20.80;;;10.83;;
73919;SDS011;62266;53.348;-1.496;2023-01-28T01:30:45;21.30;;;11.00;;
73919;SDS011;62266;53.348;-1.496;2023-01-28T01:41:27;16.17;;;9.98;;
73919;SDS011;62266;53.348;-1.496;2023-01-28T01:44:06;15.27;;;8.55;;
73919;SDS011;62266;53.348;-1.496;2023-01-28T01:46:52;14.95;;;8.13;;
73919;SDS011;62266;53.348;-1.496;2023-01-28T01:49:19;14.07;;;7.75;;
73919;SDS011;62266;53.348;-1.496;2023-01-28T01:59:53;14.27;;;8.15;;
73919;SDS011;62266;53.348;-1.496;2023-01-28T02:18:31;11.17;;;6.57;;
73919;SDS011;62266;53.348;-1.496;2023-01-28T02:29:26;12.13;;;6.68;;
73919;SDS011;62266;53.348;-1.496;2023-01-28T02:37:58;10.95;;;6.82;;
73919;SDS011;62266;53.348;-1.496;2023-01-28T02:48:18;11.25;;;6.80;;
73919;SDS011;62266;53.348;-1.496;2023-01-28T02:50:54;11.00;;;6.20;;
73919;SDS011;62266;53.348;-1.496;2023-01-28T02:53:50;9.95;;;6.10;;
73919;SDS011;62266;53.348;-1.496;2023-01-28T02:56:32;10.38;;;6.70;;
73919;SDS011;62266;53.348;-1.496;2023-01-28T03:01:57;10.65;;;6.70;;
73919;SDS011;62266;53.348;-1.496;2023-01-28T03:04:30;12.63;;;6.95;;
73919;SDS011;62266;53.348;-1.496;2023-01-28T03:06:59;13.00;;;6.88;;
73919;SDS011;62266;53.348;-1.496;2023-01-28T03:09:30;12.40;;;7.13;;
73919;SDS011;62266;53.348;-1.496;2023-01-28T03:14:43;13.55;;;7.53;;
73919;SDS011;62266;53.348;-1.496;2023-01-28T03:17:36;13.65;;;7.80;;
73919;SDS011;62266;53.348;-1.496;2023-01-28T03:20:24;11.18;;;6.63;;
73919;SDS011;62266;53.348;-1.496;2023-01-28T03:23:11;11.45;;;7.30;;
73919;SDS011;62266;53.348;-1.496;2023-01-28T03:26:00;15.53;;;8.07;;
73919;SDS011;62266;53.348;-1.496;2023-01-28T03:28:50;13.77;;;7.63;;
73919;SDS011;62266;53.348;-1.496;2023-01-28T03:31:38;13.30;;;8.13;;
73919;SDS011;62266;53.348;-1.496;2023-01-28T03:34:22;14.05;;;8.73;;
73919;SDS011;62266;53.348;-1.496;2023-01-28T03:37:12;14.93;;;7.68;;
73919;SDS011;62266;53.348;-1.496;2023-01-28T03:39:41;17.57;;;8.60;;
73919;SDS011;62266;53.348;-1.496;2023-01-28T03:42:08;14.15;;;8.13;;
73919;SDS011;62266;53.348;-1.496;2023-01-28T03:44:38;12.60;;;8.38;;
73919;SDS011;62266;53.348;-1.496;2023-01-28T03:47:18;14.15;;;8.38;;
73919;SDS011;62266;53.348;-1.496;2023-01-28T03:49:46;14.43;;;8.40;;
73919;SDS011;62266;53.348;-1.496;2023-01-28T03:52:20;12.27;;;7.90;;
73919;SDS011;62266;53.348;-1.496;2023-01-28T03:54:50;13.60;;;8.02;;
73919;SDS011;62266;53.348;-1.496;2023-01-28T03:57:20;15.50;;;8.35;;
73919;SDS011;62266;53.348;-1.496;2023-01-28T03:59:54;13.10;;;8.18;;
73919;SDS011;62266;53.348;-1.496;2023-01-28T04:02:21;14.20;;;8.73;;
73919;SDS011;62266;53.348;-1.496;2023-01-28T04:04:49;14.33;;;8.83;;
73919;SDS011;62266;53.348;-1.496;2023-01-28T04:07:15;16.15;;;8.27;;
73919;SDS011;62266;53.348;-1.496;2023-01-28T04:09:41;16.02;;;8.80;;
73919;SDS011;62266;53.348;-1.496;2023-01-28T04:12:08;13.32;;;8.00;;
73919;SDS011;62266;53.348;-1.496;2023-01-28T04:15:12;14.50;;;8.57;;
73919;SDS011;62266;53.348;-1.496;2023-01-28T04:17:47;15.30;;;8.57;;
73919;SDS011;62266;53.348;-1.496;2023-01-28T04:20:14;16.05;;;8.60;;
73919;SDS011;62266;53.348;-1.496;2023-01-28T04:22:43;16.75;;;9.05;;
73919;SDS011;62266;53.348;-1.496;2023-01-28T04:25:15;16.00;;;9.02;;
73919;SDS011;62266;53.348;-1.496;2023-01-28T04:28:01;14.02;;;8.02;;
73919;SDS011;62266;53.348;-1.496;2023-01-28T04:33:25;16.63;;;8.80;;
73919;SDS011;62266;53.348;-1.496;2023-01-28T04:35:51;16.67;;;8.35;;
73919;SDS011;62266;53.348;-1.496;2023-01-28T04:38:18;15.70;;;8.85;;
73919;SDS011;62266;53.348;-1.496;2023-01-28T04:40:47;15.27;;;8.23;;
73919;SDS011;62266;53.348;-1.496;2023-01-28T04:43:13;14.73;;;9.15;;
73919;SDS011;62266;53.348;-1.496;2023-01-28T04:45:45;15.02;;;8.85;;
73919;SDS011;62266;53.348;-1.496;2023-01-28T04:48:12;16.75;;;9.07;;
73919;SDS011;62266;53.348;-1.496;2023-01-28T04:50:40;16.00;;;9.40;;
73919;SDS011;62266;53.348;-1.496;2023-01-28T04:53:53;16.13;;;8.80;;
73919;SDS011;62266;53.348;-1.496;2023-01-28T04:56:26;16.38;;;9.45;;
73919;SDS011;62266;53.348;-1.496;2023-01-28T04:58:55;18.45;;;9.38;;
73919;SDS011;62266;53.348;-1.496;2023-01-28T05:01:21;17.45;;;9.85;;
73919;SDS011;62266;53.348;-1.496;2023-01-28T05:03:49;15.65;;;9.40;;
73919;SDS011;62266;53.348;-1.496;2023-01-28T05:06:15;15.63;;;8.47;;
73919;SDS011;62266;53.348;-1.496;2023-01-28T05:08:41;16.70;;;9.02;;
73919;SDS011;62266;53.348;-1.496;2023-01-28T05:11:11;17.80;;;9.82;;
73919;SDS011;62266;53.348;-1.496;2023-01-28T05:13:37;20.02;;;10.30;;
73919;SDS011;62266;53.348;-1.496;2023-01-28T05:16:04;18.25;;;10.13;;
73919;SDS011;62266;53.348;-1.496;2023-01-28T05:18:30;16.43;;;8.60;;
73919;SDS011;62266;53.348;-1.496;2023-01-28T05:20:56;18.17;;;9.48;;
73919;SDS011;62266;53.348;-1.496;2023-01-28T05:23:23;17.60;;;9.82;;
73919;SDS011;62266;53.348;-1.496;2023-01-28T05:25:49;20.10;;;10.40;;
73919;SDS011;62266;53.348;-1.496;2023-01-28T05:28:15;16.93;;;9.53;;
73919;SDS011;62266;53.348;-1.496;2023-01-28T05:30:41;16.33;;;9.37;;
73919;SDS011;62266;53.348;-1.496;2023-01-28T05:33:06;15.57;;;8.73;;
73919;SDS011;62266;53.348;-1.496;2023-01-28T05:35:33;17.63;;;9.53;;
73919;SDS011;62266;53.348;-1.496;2023-01-28T05:37:58;17.80;;;9.38;;
73919;SDS011;62266;53.348;-1.496;2023-01-28T05:40:24;22.77;;;9.70;;
73919;SDS011;62266;53.348;-1.496;2023-01-28T05:42:50;15.63;;;8.93;;
73919;SDS011;62266;53.348;-1.496;2023-01-28T05:45:15;20.77;;;9.52;;
73919;SDS011;62266;53.348;-1.496;2023-01-28T05:47:41;16.30;;;8.30;;
73919;SDS011;62266;53.348;-1.496;2023-01-28T05:50:11;16.13;;;8.50;;
73919;SDS011;62266;53.348;-1.496;2023-01-28T05:52:37;16.23;;;8.30;;
73919;SDS011;62266;53.348;-1.496;2023-01-28T05:55:04;17.30;;;9.43;;
73919;SDS011;62266;53.348;-1.496;2023-01-28T05:57:30;14.48;;;8.18;;
73919;SDS011;62266;53.348;-1.496;2023-01-28T05:59:56;17.23;;;8.57;;
73919;SDS011;62266;53.348;-1.496;2023-01-28T06:02:21;19.48;;;9.32;;
73919;SDS011;62266;53.348;-1.496;2023-01-28T06:04:50;15.00;;;8.82;;
73919;SDS011;62266;53.348;-1.496;2023-01-28T06:07:18;20.77;;;9.47;;
73919;SDS011;62266;53.348;-1.496;2023-01-28T06:09:48;17.52;;;8.90;;
73919;SDS011;62266;53.348;-1.496;2023-01-28T06:12:14;17.70;;;9.40;;
73919;SDS011;62266;53.348;-1.496;2023-01-28T06:14:40;16.80;;;8.67;;
73919;SDS011;62266;53.348;-1.496;2023-01-28T06:17:06;16.48;;;8.77;;
73919;SDS011;62266;53.348;-1.496;2023-01-28T06:19:32;16.83;;;9.20;;
73919;SDS011;62266;53.348;-1.496;2023-01-28T06:22:05;19.13;;;9.77;;
73919;SDS011;62266;53.348;-1.496;2023-01-28T06:24:31;17.37;;;9.90;;
73919;SDS011;62266;53.348;-1.496;2023-01-28T06:26:58;18.75;;;9.88;;
73919;SDS011;62266;53.348;-1.496;2023-01-28T06:29:23;18.27;;;9.50;;
73919;SDS011;62266;53.348;-1.496;2023-01-28T06:31:49;17.08;;;8.85;;
73919;SDS011;62266;53.348;-1.496;2023-01-28T06:34:15;18.67;;;9.48;;
73919;SDS011;62266;53.348;-1.496;2023-01-28T06:36:41;16.73;;;8.97;;
73919;SDS011;62266;53.348;-1.496;2023-01-28T06:39:07;16.25;;;9.18;;
73919;SDS011;62266;53.348;-1.496;2023-01-28T06:41:33;15.10;;;9.05;;
73919;SDS011;62266;53.348;-1.496;2023-01-28T06:43:59;17.60;;;9.20;;
73919;SDS011;62266;53.348;-1.496;2023-01-28T06:46:24;15.40;;;8.57;;
73919;SDS011;62266;53.348;-1.496;2023-01-28T06:48:50;18.63;;;9.07;;
73919;SDS011;62266;53.348;-1.496;2023-01-28T06:51:16;20.67;;;9.70;;
73919;SDS011;62266;53.348;-1.496;2023-01-28T06:53:42;19.07;;;8.80;;
73919;SDS011;62266;53.348;-1.496;2023-01-28T06:56:08;17.15;;;8.65;;
73919;SDS011;62266;53.348;-1.496;2023-01-28T06:58:34;22.75;;;10.23;;
73919;SDS011;62266;53.348;-1.496;2023-01-28T07:01:00;16.40;;;8.00;;
73919;SDS011;62266;53.348;-1.496;2023-01-28T07:03:28;10.50;;;5.67;;
73919;SDS011;62266;53.348;-1.496;2023-01-28T07:05:56;10.75;;;6.05;;
73919;SDS011;62266;53.348;-1.496;2023-01-28T07:08:25;12.25;;;6.07;;
73919;SDS011;62266;53.348;-1.496;2023-01-28T07:10:53;13.20;;;5.38;;
73919;SDS011;62266;53.348;-1.496;2023-01-28T07:13:21;11.80;;;5.40;;
73919;SDS011;62266;53.348;-1.496;2023-01-28T07:16:09;10.77;;;4.38;;
73919;SDS011;62266;53.348;-1.496;2023-01-28T07:18:35;7.95;;;3.90;;
73919;SDS011;62266;53.348;-1.496;2023-01-28T07:23:42;8.35;;;4.25;;
73919;SDS011;62266;53.348;-1.496;2023-01-28T07:26:09;7.40;;;3.70;;
73919;SDS011;62266;53.348;-1.496;2023-01-28T07:28:38;9.45;;;4.70;;
73919;SDS011;62266;53.348;-1.496;2023-01-28T07:47:27;7.90;;;3.35;;
73919;SDS011;62266;53.348;-1.496;2023-01-28T07:49:56;10.32;;;3.90;;
73919;SDS011;62266;53.348;-1.496;2023-01-28T07:52:28;6.03;;;3.27;;
73919;SDS011;62266;53.348;-1.496;2023-01-28T07:54:54;8.23;;;3.40;;
73919;SDS011;62266;53.348;-1.496;2023-01-28T07:57:23;10.35;;;3.90;;
73919;SDS011;62266;53.348;-1.496;2023-01-28T07:59:58;8.77;;;4.20;;
73919;SDS011;62266;53.348;-1.496;2023-01-28T08:03:03;7.20;;;4.00;;
73919;SDS011;62266;53.348;-1.496;2023-01-28T08:05:41;8.40;;;3.80;;
73919;SDS011;62266;53.348;-1.496;2023-01-28T08:08:09;7.32;;;3.83;;
73919;SDS011;62266;53.348;-1.496;2023-01-28T08:10:36;7.95;;;4.10;;
73919;SDS011;62266;53.348;-1.496;2023-01-28T08:13:02;7.28;;;3.70;;
73919;SDS011;62266;53.348;-1.496;2023-01-28T08:15:28;10.70;;;4.57;;
73919;SDS011;62266;53.348;-1.496;2023-01-28T08:17:54;9.13;;;4.40;;
73919;SDS011;62266;53.348;-1.496;2023-01-28T08:20:21;6.38;;;3.55;;
73919;SDS011;62266;53.348;-1.496;2023-01-28T08:22:48;8.52;;;3.80;;
73919;SDS011;62266;53.348;-1.496;2023-01-28T08:25:14;7.63;;;3.90;;
73919;SDS011;62266;53.348;-1.496;2023-01-28T08:27:40;7.72;;;3.92;;
73919;SDS011;62266;53.348;-1.496;2023-01-28T08:30:06;9.17;;;4.37;;
73919;SDS011;62266;53.348;-1.496;2023-01-28T08:32:33;9.52;;;4.10;;
73919;SDS011;62266;53.348;-1.496;2023-01-28T08:34:59;8.55;;;4.13;;
73919;SDS011;62266;53.348;-1.496;2023-01-28T08:37:25;7.37;;;4.13;;
73919;SDS011;62266;53.348;-1.496;2023-01-28T08:39:50;8.90;;;4.60;;
73919;SDS011;62266;53.348;-1.496;2023-01-28T08:42:16;8.10;;;4.47;;
73919;SDS011;62266;53.348;-1.496;2023-01-28T08:44:42;8.95;;;4.32;;
73919;SDS011;62266;53.348;-1.496;2023-01-28T08:47:07;10.47;;;5.23;;
73919;SDS011;62266;53.348;-1.496;2023-01-28T08:49:33;8.83;;;4.70;;
73919;SDS011;62266;53.348;-1.496;2023-01-28T08:51:58;7.50;;;4.63;;
73919;SDS011;62266;53.348;-1.496;2023-01-28T08:54:24;11.03;;;4.77;;
73919;SDS011;62266;53.348;-1.496;2023-01-28T08:56:50;11.43;;;5.57;;
73919;SDS011;62266;53.348;-1.496;2023-01-28T08:59:16;12.77;;;6.03;;
73919;SDS011;62266;53.348;-1.496;2023-01-28T09:01:42;9.30;;;5.13;;
73919;SDS011;62266;53.348;-1.496;2023-01-28T09:04:14;12.10;;;5.80;;
73919;SDS011;62266;53.348;-1.496;2023-01-28T09:06:42;11.30;;;5.03;;
73919;SDS011;62266;53.348;-1.496;2023-01-28T09:09:13;10.18;;;5.38;;
73919;SDS011;62266;53.348;-1.496;2023-01-28T09:11:38;8.70;;;4.93;;
73919;SDS011;62266;53.348;-1.496;2023-01-28T09:14:04;8.63;;;5.03;;
73919;SDS011;62266;53.348;-1.496;2023-01-28T09:16:30;10.02;;;4.97;;
73919;SDS011;62266;53.348;-1.496;2023-01-28T09:18:56;13.67;;;6.20;;
73919;SDS011;62266;53.348;-1.496;2023-01-28T09:21:24;10.30;;;6.20;;
73919;SDS011;62266;53.348;-1.496;2023-01-28T09:23:49;10.23;;;5.55;;
73919;SDS011;62266;53.348;-1.496;2023-01-28T09:26:15;9.87;;;6.00;;
73919;SDS011;62266;53.348;-1.496;2023-01-28T09:28:40;14.25;;;6.38;;
73919;SDS011;62266;53.348;-1.496;2023-01-28T09:31:08;14.33;;;6.40;;
73919;SDS011;62266;53.348;-1.496;2023-01-28T09:33:36;10.80;;;5.97;;
73919;SDS011;62266;53.348;-1.496;2023-01-28T09:36:03;10.95;;;6.20;;
73919;SDS011;62266;53.348;-1.496;2023-01-28T09:38:30;11.32;;;5.75;;
73919;SDS011;62266;53.348;-1.496;2023-01-28T09:40:57;12.18;;;6.00;;
73919;SDS011;62266;53.348;-1.496;2023-01-28T09:46:02;7.80;;;4.93;;
73919;SDS011;62266;53.348;-1.496;2023-01-28T09:48:31;11.50;;;5.53;;
73919;SDS011;62266;53.348;-1.496;2023-01-28T09:51:03;11.30;;;6.43;;
73919;SDS011;62266;53.348;-1.496;2023-01-28T09:53:38;8.55;;;5.40;;
73919;SDS011;62266;53.348;-1.496;2023-01-28T09:56:11;10.80;;;5.20;;
73919;SDS011;62266;53.348;-1.496;2023-01-28T09:58:40;11.02;;;5.55;;
73919;SDS011;62266;53.348;-1.496;2023-01-28T10:04:12;13.27;;;6.30;;
73919;SDS011;62266;53.348;-1.496;2023-01-28T10:18:00;7.72;;;4.55;;
73919;SDS011;62266;53.348;-1.496;2023-01-28T10:20:31;8.43;;;4.60;;
73919;SDS011;62266;53.348;-1.496;2023-01-28T10:23:43;10.43;;;4.50;;
73919;SDS011;62266;53.348;-1.496;2023-01-28T10:25:51;8.65;;;4.75;;
73919;SDS011;62266;53.348;-1.496;2023-01-28T10:28:22;8.32;;;4.15;;
73919;SDS011;62266;53.348;-1.496;2023-01-28T10:30:50;6.40;;;3.97;;
73919;SDS011;62266;53.348;-1.496;2023-01-28T10:33:21;8.10;;;3.65;;
73919;SDS011;62266;53.348;-1.496;2023-01-28T10:35:47;5.87;;;3.30;;
73919;SDS011;62266;53.348;-1.496;2023-01-28T10:38:14;5.85;;;3.35;;
73919;SDS011;62266;53.348;-1.496;2023-01-28T10:40:41;8.10;;;3.13;;
73919;SDS011;62266;53.348;-1.496;2023-01-28T10:43:11;3.92;;;2.10;;
73919;SDS011;62266;53.348;-1.496;2023-01-28T10:45:42;5.03;;;2.20;;
73919;SDS011;62266;53.348;-1.496;2023-01-28T10:48:18;3.90;;;2.17;;
73919;SDS011;62266;53.348;-1.496;2023-01-28T10:50:57;4.05;;;1.98;;
73919;SDS011;62266;53.348;-1.496;2023-01-28T10:53:33;3.85;;;1.63;;
73919;SDS011;62266;53.348;-1.496;2023-01-28T10:56:06;5.32;;;2.38;;
73919;SDS011;62266;53.348;-1.496;2023-01-28T10:58:36;7.32;;;3.30;;
73919;SDS011;62266;53.348;-1.496;2023-01-28T11:01:12;6.40;;;2.67;;
73919;SDS011;62266;53.348;-1.496;2023-01-28T11:03:50;2.05;;;0.80;;
73919;SDS011;62266;53.348;-1.496;2023-01-28T11:06:25;1.45;;;0.90;;
73919;SDS011;62266;53.348;-1.496;2023-01-28T11:08:53;2.20;;;0.95;;
73919;SDS011;62266;53.348;-1.496;2023-01-28T11:11:23;2.13;;;0.90;;
73919;SDS011;62266;53.348;-1.496;2023-01-28T11:13:52;1.25;;;0.70;;
73919;SDS011;62266;53.348;-1.496;2023-01-28T11:16:20;2.30;;;1.20;;
73919;SDS011;62266;53.348;-1.496;2023-01-28T11:18:58;2.92;;;1.10;;
73919;SDS011;62266;53.348;-1.496;2023-01-28T11:21:28;1.73;;;1.20;;
73919;SDS011;62266;53.348;-1.496;2023-01-28T11:26:24;2.03;;;1.20;;
73919;SDS011;62266;53.348;-1.496;2023-01-28T11:28:52;4.20;;;1.25;;
73919;SDS011;62266;53.348;-1.496;2023-01-28T11:31:19;2.60;;;0.90;;
73919;SDS011;62266;53.348;-1.496;2023-01-28T11:33:55;2.00;;;1.03;;
73919;SDS011;62266;53.348;-1.496;2023-01-28T11:36:30;1.45;;;0.80;;
73919;SDS011;62266;53.348;-1.496;2023-01-28T11:38:57;3.80;;;0.95;;
73919;SDS011;62266;53.348;-1.496;2023-01-28T11:41:30;2.63;;;1.58;;
73919;SDS011;62266;53.348;-1.496;2023-01-28T12:01:20;6.77;;;3.57;;
73919;SDS011;62266;53.348;-1.496;2023-01-28T12:03:56;5.30;;;3.05;;
73919;SDS011;62266;53.348;-1.496;2023-01-28T12:17:07;3.63;;;1.88;;
73919;SDS011;62266;53.348;-1.496;2023-01-28T12:23:10;3.25;;;1.80;;
73919;SDS011;62266;53.348;-1.496;2023-01-28T12:41:41;3.33;;;1.40;;
73919;SDS011;62266;53.348;-1.496;2023-01-28T12:44:11;3.25;;;1.38;;
73919;SDS011;62266;53.348;-1.496;2023-01-28T12:52:14;1.80;;;0.90;;
73919;SDS011;62266;53.348;-1.496;2023-01-28T12:57:28;2.30;;;1.30;;
73919;SDS011;62266;53.348;-1.496;2023-01-28T12:59:57;3.55;;;1.40;;
73919;SDS011;62266;53.348;-1.496;2023-01-28T13:02:41;2.25;;;1.30;;
73919;SDS011;62266;53.348;-1.496;2023-01-28T13:07:47;1.17;;;0.70;;
73919;SDS011;62266;53.348;-1.496;2023-01-28T13:10:26;2.00;;;1.40;;
73919;SDS011;62266;53.348;-1.496;2023-01-28T13:12:55;1.98;;;1.00;;
73919;SDS011;62266;53.348;-1.496;2023-01-28T13:15:20;1.80;;;1.08;;
73919;SDS011;62266;53.348;-1.496;2023-01-28T13:17:58;2.70;;;0.80;;
73919;SDS011;62266;53.348;-1.496;2023-01-28T13:21:08;2.75;;;1.02;;
73919;SDS011;62266;53.348;-1.496;2023-01-28T13:25:56;1.88;;;1.00;;
73919;SDS011;62266;53.348;-1.496;2023-01-28T13:28:49;2.05;;;1.35;;
73919;SDS011;62266;53.348;-1.496;2023-01-28T13:31:17;1.70;;;1.30;;
73919;SDS011;62266;53.348;-1.496;2023-01-28T13:33:48;4.70;;;1.70;;
73919;SDS011;62266;53.348;-1.496;2023-01-28T13:36:30;2.97;;;1.40;;
73919;SDS011;62266;53.348;-1.496;2023-01-28T13:38:59;2.45;;;1.30;;
73919;SDS011;62266;53.348;-1.496;2023-01-28T13:41:35;1.70;;;1.10;;
73919;SDS011;62266;53.348;-1.496;2023-01-28T13:46:53;1.60;;;1.20;;
73919;SDS011;62266;53.348;-1.496;2023-01-28T13:49:21;2.92;;;1.38;;
73919;SDS011;62266;53.348;-1.496;2023-01-28T13:51:57;2.45;;;1.30;;
73919;SDS011;62266;53.348;-1.496;2023-01-28T13:54:25;2.67;;;1.23;;
73919;SDS011;62266;53.348;-1.496;2023-01-28T14:02:02;2.05;;;1.08;;
73919;SDS011;62266;53.348;-1.496;2023-01-28T14:12:55;2.28;;;0.50;;
73919;SDS011;62266;53.348;-1.496;2023-01-28T14:15:42;1.05;;;0.63;;
73919;SDS011;62266;53.348;-1.496;2023-01-28T14:18:29;1.00;;;0.70;;
73919;SDS011;62266;53.348;-1.496;2023-01-28T14:20:59;0.70;;;0.50;;
73919;SDS011;62266;53.348;-1.496;2023-01-28T14:23:26;0.95;;;0.70;;
73919;SDS011;62266;53.348;-1.496;2023-01-28T14:31:25;2.35;;;0.80;;
73919;SDS011;62266;53.348;-1.496;2023-01-28T14:34:03;1.20;;;0.60;;
73919;SDS011;62266;53.348;-1.496;2023-01-28T14:36:37;4.43;;;1.55;;
73919;SDS011;62266;53.348;-1.496;2023-01-28T14:39:03;3.97;;;2.10;;
73919;SDS011;62266;53.348;-1.496;2023-01-28T14:41:29;3.10;;;2.00;;
73919;SDS011;62266;53.348;-1.496;2023-01-28T14:43:55;2.75;;;1.73;;
73919;SDS011;62266;53.348;-1.496;2023-01-28T14:46:28;3.63;;;2.38;;
73919;SDS011;62266;53.348;-1.496;2023-01-28T14:49:35;5.75;;;2.40;;
73919;SDS011;62266;53.348;-1.496;2023-01-28T14:54:51;3.08;;;2.03;;
73919;SDS011;62266;53.348;-1.496;2023-01-28T14:59:49;1.60;;;1.00;;
73919;SDS011;62266;53.348;-1.496;2023-01-28T15:02:19;0.90;;;0.73;;
73919;SDS011;62266;53.348;-1.496;2023-01-28T15:04:48;1.57;;;0.73;;
73919;SDS011;62266;53.348;-1.496;2023-01-28T15:09:57;1.30;;;0.80;;
73919;SDS011;62266;53.348;-1.496;2023-01-28T15:12:28;2.55;;;0.90;;
73919;SDS011;62266;53.348;-1.496;2023-01-28T15:14:55;1.48;;;1.17;;
73919;SDS011;62266;53.348;-1.496;2023-01-28T15:17:22;1.73;;;1.03;;
73919;SDS011;62266;53.348;-1.496;2023-01-28T15:19:50;1.60;;;1.30;;
73919;SDS011;62266;53.348;-1.496;2023-01-28T15:22:20;2.30;;;1.90;;
73919;SDS011;62266;53.348;-1.496;2023-01-28T15:24:50;1.77;;;1.20;;
73919;SDS011;62266;53.348;-1.496;2023-01-28T15:27:17;4.80;;;2.13;;
73919;SDS011;62266;53.348;-1.496;2023-01-28T15:29:53;2.20;;;1.70;;
73919;SDS011;62266;53.348;-1.496;2023-01-28T15:32:29;2.60;;;2.10;;
73919;SDS011;62266;53.348;-1.496;2023-01-28T15:34:58;3.53;;;2.90;;
73919;SDS011;62266;53.348;-1.496;2023-01-28T15:37:25;2.83;;;2.10;;
73919;SDS011;62266;53.348;-1.496;2023-01-28T15:40:00;3.28;;;1.80;;
73919;SDS011;62266;53.348;-1.496;2023-01-28T15:42:32;1.77;;;1.47;;
73919;SDS011;62266;53.348;-1.496;2023-01-28T15:44:59;1.77;;;1.15;;
73919;SDS011;62266;53.348;-1.496;2023-01-28T15:47:29;2.17;;;1.30;;
73919;SDS011;62266;53.348;-1.496;2023-01-28T15:49:59;2.17;;;1.63;;
73919;SDS011;62266;53.348;-1.496;2023-01-28T15:52:31;1.43;;;1.00;;
73919;SDS011;62266;53.348;-1.496;2023-01-28T15:54:59;2.22;;;1.60;;
73919;SDS011;62266;53.348;-1.496;2023-01-28T15:57:28;1.98;;;1.20;;
73919;SDS011;62266;53.348;-1.496;2023-01-28T16:02:31;1.60;;;1.25;;
73919;SDS011;62266;53.348;-1.496;2023-01-28T16:05:01;2.50;;;1.63;;
73919;SDS011;62266;53.348;-1.496;2023-01-28T16:10:39;10.80;;;5.82;;
73919;SDS011;62266;53.348;-1.496;2023-01-28T16:15:48;36.88;;;18.05;;
73919;SDS011;62266;53.348;-1.496;2023-01-28T16:18:48;39.67;;;14.13;;
73919;SDS011;62266;53.348;-1.496;2023-01-28T16:24:22;17.85;;;6.95;;
73919;SDS011;62266;53.348;-1.496;2023-01-28T16:29:44;6.90;;;2.70;;
73919;SDS011;62266;53.348;-1.496;2023-01-28T16:32:24;5.47;;;2.63;;
73919;SDS011;62266;53.348;-1.496;2023-01-28T16:34:51;6.00;;;3.85;;
73919;SDS011;62266;53.348;-1.496;2023-01-28T16:37:21;6.30;;;3.50;;
73919;SDS011;62266;53.348;-1.496;2023-01-28T16:39:50;6.23;;;2.70;;
73919;SDS011;62266;53.348;-1.496;2023-01-28T16:42:16;5.18;;;2.80;;
73919;SDS011;62266;53.348;-1.496;2023-01-28T16:44:42;4.90;;;2.75;;
73919;SDS011;62266;53.348;-1.496;2023-01-28T16:47:07;5.30;;;3.40;;
73919;SDS011;62266;53.348;-1.496;2023-01-28T16:49:35;2.40;;;1.85;;
73919;SDS011;62266;53.348;-1.496;2023-01-28T16:52:04;2.38;;;1.63;;
73919;SDS011;62266;53.348;-1.496;2023-01-28T16:54:33;3.33;;;2.00;;
73919;SDS011;62266;53.348;-1.496;2023-01-28T16:57:00;3.33;;;2.20;;
73919;SDS011;62266;53.348;-1.496;2023-01-28T16:59:26;3.95;;;2.28;;
73919;SDS011;62266;53.348;-1.496;2023-01-28T17:01:58;3.30;;;1.88;;
73919;SDS011;62266;53.348;-1.496;2023-01-28T17:04:29;2.50;;;1.70;;
73919;SDS011;62266;53.348;-1.496;2023-01-28T17:06:58;3.50;;;2.00;;
73919;SDS011;62266;53.348;-1.496;2023-01-28T17:09:26;2.28;;;1.42;;
73919;SDS011;62266;53.348;-1.496;2023-01-28T17:11:55;4.88;;;2.20;;
73919;SDS011;62266;53.348;-1.496;2023-01-28T17:14:31;3.53;;;2.42;;
73919;SDS011;62266;53.348;-1.496;2023-01-28T17:16:57;6.13;;;3.50;;
73919;SDS011;62266;53.348;-1.496;2023-01-28T17:19:23;4.43;;;2.50;;
73919;SDS011;62266;53.348;-1.496;2023-01-28T17:22:04;5.00;;;3.90;;
73919;SDS011;62266;53.348;-1.496;2023-01-28T17:24:32;9.95;;;5.18;;
73919;SDS011;62266;53.348;-1.496;2023-01-28T17:27:04;6.40;;;3.00;;
73919;SDS011;62266;53.348;-1.496;2023-01-28T17:29:33;4.80;;;3.05;;
73919;SDS011;62266;53.348;-1.496;2023-01-28T17:31:59;5.20;;;3.55;;
73919;SDS011;62266;53.348;-1.496;2023-01-28T17:34:24;6.07;;;3.53;;
73919;SDS011;62266;53.348;-1.496;2023-01-28T17:36:50;6.97;;;4.45;;
73919;SDS011;62266;53.348;-1.496;2023-01-28T17:39:15;6.50;;;3.90;;
73919;SDS011;62266;53.348;-1.496;2023-01-28T17:41:41;8.88;;;5.00;;
73919;SDS011;62266;53.348;-1.496;2023-01-28T17:44:09;6.67;;;3.97;;
73919;SDS011;62266;53.348;-1.496;2023-01-28T17:46:43;7.22;;;4.13;;
73919;SDS011;62266;53.348;-1.496;2023-01-28T17:49:13;14.00;;;9.10;;
73919;SDS011;62266;53.348;-1.496;2023-01-28T17:51:41;10.13;;;6.63;;
73919;SDS011;62266;53.348;-1.496;2023-01-28T17:54:10;8.40;;;5.65;;
73919;SDS011;62266;53.348;-1.496;2023-01-28T17:56:37;10.17;;;5.20;;
73919;SDS011;62266;53.348;-1.496;2023-01-28T17:59:03;9.35;;;5.50;;
73919;SDS011;62266;53.348;-1.496;2023-01-28T18:01:30;9.35;;;5.38;;
73919;SDS011;62266;53.348;-1.496;2023-01-28T18:04:02;10.90;;;6.30;;
73919;SDS011;62266;53.348;-1.496;2023-01-28T18:06:31;10.80;;;6.18;;
73919;SDS011;62266;53.348;-1.496;2023-01-28T18:08:57;12.13;;;6.32;;
73919;SDS011;62266;53.348;-1.496;2023-01-28T18:11:24;10.15;;;6.28;;